Time;durP1;ratioP1;P1;durP2;ratioP2;P2;SDS_P1;SDS_P2;PMS_P1;PMS_P2;Temp;Humidity;BMP_temperature;BMP_pressure;BME280_temperature;BME280_humidity;BME280_pressure;Samples;Min_cycle;Max_cycle;Signal;HPM_P1;HPM_P2
2021/05/04 00:02:08;;;;;;;6.10;3.95;;;384.60;1689.60;;;;;;5040331;28;20021;-86
2021/05/04 00:04:34;;;;;;;6.90;4.10;;;384.50;1689.60;;;;;;5042460;28;20021;-86
2021/05/04 00:06:59;;;;;;;5.72;3.95;;;384.40;1689.60;;;;;;5041183;28;20021;-86
2021/05/04 00:09:25;;;;;;;6.15;3.63;;;384.30;1689.60;;;;;;5057438;28;20033;-88
2021/05/04 00:11:52;;;;;;;6.68;3.90;;;384.30;1689.60;;;;;;5041953;28;20021;-87
2021/05/04 00:14:18;;;;;;;8.40;3.80;;;384.10;1689.60;;;;;;5042259;28;20049;-86
2021/05/04 00:16:44;;;;;;;7.93;4.10;;;384.30;1689.60;;;;;;5041988;28;20059;-87
2021/05/04 00:19:10;;;;;;;5.68;3.35;;;384.20;1715.20;;;;;;5041685;28;20035;-88
2021/05/04 00:21:36;;;;;;;5.30;3.30;;;384.20;1689.60;;;;;;5042712;28;20017;-88
2021/05/04 00:24:04;;;;;;;5.63;3.80;;;384.10;1689.60;;;;;;5039663;28;20436;-85
2021/05/04 00:26:30;;;;;;;7.25;4.28;;;384.10;1689.60;;;;;;5038948;28;20025;-85
2021/05/04 00:28:56;;;;;;;6.22;3.78;;;384.10;1664.00;;;;;;5039159;28;20037;-86
2021/05/04 00:31:21;;;;;;;4.22;3.22;;;384.00;1664.00;;;;;;5039115;28;20108;-85
2021/05/04 00:33:47;;;;;;;6.25;3.97;;;384.00;1664.00;;;;;;5038994;28;20024;-83
2021/05/04 00:36:13;;;;;;;7.13;4.07;;;359.20;1664.00;;;;;;5039233;28;20499;-85
2021/05/04 00:38:39;;;;;;;5.68;3.70;;;359.20;1664.00;;;;;;5038988;28;20086;-86
2021/05/04 00:41:05;;;;;;;7.38;3.90;;;359.20;1664.00;;;;;;5038526;28;20021;-85
2021/05/04 00:43:33;;;;;;;6.32;3.70;;;359.20;1664.00;;;;;;5038861;28;20032;-83
2021/05/04 00:46:00;;;;;;;10.73;3.90;;;359.10;1664.00;;;;;;5038894;28;20441;-84
2021/05/04 00:48:28;;;;;;;6.57;3.20;;;359.00;1664.00;;;;;;5038407;28;20025;-86
2021/05/04 00:50:55;;;;;;;6.90;3.45;;;358.80;1689.60;;;;;;5037393;28;20029;-84
2021/05/04 00:53:21;;;;;;;7.13;3.22;;;358.90;1689.60;;;;;;5038360;28;20132;-84
2021/05/04 00:55:48;;;;;;;5.53;3.53;;;359.00;1689.60;;;;;;5038707;28;20112;-85
2021/05/04 00:58:26;;;;;;;5.93;3.30;;;358.80;1689.60;;;;;;5038573;28;20029;-83
2021/05/04 01:00:53;;;;;;;6.05;3.60;;;358.90;1689.60;;;;;;5038503;28;20025;-84
2021/05/04 01:03:21;;;;;;;5.90;3.58;;;358.80;1689.60;;;;;;5038644;28;20123;-84
2021/05/04 01:05:47;;;;;;;5.35;3.58;;;358.70;1689.60;;;;;;5038495;28;20112;-84
2021/05/04 01:08:13;;;;;;;5.45;3.40;;;358.70;1715.20;;;;;;5056194;28;20029;-83
2021/05/04 01:10:42;;;;;;;8.13;3.80;;;358.60;1715.20;;;;;;5038120;28;20086;-84
2021/05/04 01:13:09;;;;;;;5.68;3.65;;;358.60;1715.20;;;;;;5038090;28;20112;-84
2021/05/04 01:15:38;;;;;;;7.13;3.90;;;358.40;1715.20;;;;;;5021253;28;20029;-84
2021/05/04 01:18:04;;;;;;;6.60;3.30;;;358.60;1715.20;;;;;;5037883;28;20468;-85
2021/05/04 01:20:31;;;;;;;6.53;3.80;;;358.60;1715.20;;;;;;5055788;28;20048;-83
2021/05/04 01:22:57;;;;;;;5.45;3.42;;;358.50;1740.80;;;;;;5021232;28;20029;-83
2021/05/04 01:25:23;;;;;;;7.13;3.65;;;358.50;1715.20;;;;;;5037826;28;20048;-83
2021/05/04 01:27:49;;;;;;;7.95;3.83;;;358.50;1715.20;;;;;;5037674;28;20460;-83
2021/05/04 01:30:15;;;;;;;7.13;3.92;;;358.50;1715.20;;;;;;5020810;28;20460;-83
2021/05/04 01:32:42;;;;;;;7.28;3.45;;;358.70;1715.20;;;;;;5037108;28;20086;-84
2021/05/04 01:35:13;;;;;;;7.13;3.50;;;358.40;1715.20;;;;;;5038262;28;20029;-84
2021/05/04 01:37:43;;;;;;;6.80;3.72;;;358.40;1715.20;;;;;;5055312;28;20070;-84
2021/05/04 01:40:09;;;;;;;5.32;3.55;;;358.40;1715.20;;;;;;5037528;28;20036;-84
2021/05/04 01:42:35;;;;;;;7.05;4.03;;;358.40;1689.60;;;;;;5037058;28;20028;-83
2021/05/04 01:45:01;;;;;;;7.35;3.92;;;358.40;1715.20;;;;;;5037440;28;20069;-84
2021/05/04 01:47:27;;;;;;;6.32;3.88;;;333.70;1715.20;;;;;;5037426;28;20444;-85
2021/05/04 01:49:53;;;;;;;11.70;4.07;;;333.70;1689.60;;;;;;5037069;28;20098;-84
2021/05/04 01:52:20;;;;;;;6.90;3.33;;;333.70;1689.60;;;;;;5037371;28;20047;-84
2021/05/04 01:54:49;;;;;;;7.10;4.03;;;333.40;1689.60;;;;;;5020639;28;20350;-84
2021/05/04 01:57:15;;;;;;;7.93;4.10;;;333.60;1689.60;;;;;;5036831;28;20063;-85
2021/05/04 01:59:44;;;;;;;7.40;4.63;;;333.60;1689.60;;;;;;5037149;28;20021;-84
2021/05/04 02:02:10;;;;;;;5.65;4.10;;;333.60;1689.60;;;;;;5036869;28;20032;-84
2021/05/04 02:04:36;;;;;;;7.00;4.05;;;333.70;1689.60;;;;;;5036938;28;20115;-81
2021/05/04 02:07:04;;;;;;;8.70;4.20;;;333.60;1689.60;;;;;;5036831;28;20113;-80
2021/05/04 02:09:31;;;;;;;6.47;3.47;;;333.30;1740.80;;;;;;5036813;28;20025;-79
2021/05/04 02:11:58;;;;;;;7.65;4.13;;;333.30;1766.40;;;;;;5036453;28;20048;-82
2021/05/04 02:14:25;;;;;;;6.10;3.97;;;333.20;1817.60;;;;;;5036731;28;20017;-81
2021/05/04 02:16:54;;;;;;;9.85;4.50;;;333.00;1894.40;;;;;;5020396;28;20040;-81
2021/05/04 02:19:21;;;;;;;9.05;4.13;;;333.00;1920.00;;;;;;5035273;28;20017;-82
2021/05/04 02:21:47;;;;;;;6.45;4.35;;;332.80;1945.60;;;;;;5036682;28;20079;-80
2021/05/04 02:24:13;;;;;;;7.43;4.57;;;333.00;1920.00;;;;;;5036226;28;20124;-82
2021/05/04 02:26:39;;;;;;;8.23;4.57;;;333.00;1894.40;;;;;;5036797;28;20067;-83
2021/05/04 02:29:05;;;;;;;12.13;4.63;;;333.30;1920.00;;;;;;5020246;28;20082;-80
2021/05/04 02:31:31;;;;;;;6.35;4.13;;;333.30;1920.00;;;;;;5036158;28;20013;-80
2021/05/04 02:34:02;;;;;;;9.35;4.30;;;333.30;1920.00;;;;;;5036466;28;20021;-78
2021/05/04 02:36:28;;;;;;;7.00;4.40;;;333.20;1945.60;;;;;;5036479;28;20020;-80
2021/05/04 02:38:54;;;;;;;7.65;4.13;;;332.80;1996.80;;;;;;5036041;28;20420;-81
2021/05/04 02:41:20;;;;;;;7.10;4.40;;;308.00;1971.20;;;;;;5036376;28;20028;-81
2021/05/04 02:43:46;;;;;;;7.30;4.28;;;307.80;1996.80;;;;;;5036062;28;20024;-79
2021/05/04 02:46:11;;;;;;;5.47;4.03;;;308.00;1996.80;;;;;;5036131;28;20569;-81
2021/05/04 02:48:39;;;;;;;6.15;4.72;;;308.10;1996.80;;;;;;5035131;28;20029;-80
2021/05/04 02:51:11;;;;;;;7.95;4.50;;;307.90;1996.80;;;;;;5036976;28;20029;-80
2021/05/04 02:53:39;;;;;;;7.15;4.15;;;307.80;2048.00;;;;;;5033354;28;20041;-80
2021/05/04 02:56:07;;;;;;;8.90;3.63;;;307.70;2073.60;;;;;;5053391;28;20036;-79
2021/05/04 02:58:33;;;;;;;5.85;4.00;;;307.30;2124.80;;;;;;5051429;28;20028;-82
2021/05/04 03:00:59;;;;;;;7.63;3.97;;;282.50;2150.40;;;;;;5052806;28;20025;-81
2021/05/04 03:03:25;;;;;;;6.43;4.40;;;282.50;2176.00;;;;;;5053377;28;20119;-78
2021/05/04 03:05:53;;;;;;;5.97;4.03;;;282.50;2176.00;;;;;;5053220;28;20020;-78
2021/05/04 03:08:19;;;;;;;6.25;3.75;;;282.40;2201.60;;;;;;5052444;28;20036;-78
2021/05/04 03:10:45;;;;;;;6.72;4.32;;;307.20;2227.20;;;;;;5053181;28;20103;-80
2021/05/04 03:13:11;;;;;;;7.00;4.18;;;307.30;2227.20;;;;;;5052841;28;20021;-80
2021/05/04 03:15:37;;;;;;;8.38;4.00;;;307.50;2201.60;;;;;;5052844;28;20025;-80
2021/05/04 03:18:04;;;;;;;7.07;4.22;;;307.60;2201.60;;;;;;5053237;28;20086;-83
2021/05/04 03:20:30;;;;;;;8.00;4.65;;;307.40;2252.80;;;;;;5052270;28;20516;-80
2021/05/04 03:22:56;;;;;;;5.95;3.50;;;307.30;2252.80;;;;;;5052719;28;20060;-81
2021/05/04 03:25:22;;;;;;;8.27;4.45;;;307.30;2252.80;;;;;;5053419;28;20059;-80
2021/05/04 03:27:54;;;;;;;5.63;3.90;;;307.30;2252.80;;;;;;5052853;28;20170;-81
2021/05/04 03:30:20;;;;;;;7.18;4.32;;;307.30;2252.80;;;;;;5052272;28;20079;-83
2021/05/04 03:32:46;;;;;;;9.07;4.60;;;307.40;2252.80;;;;;;5052410;28;20178;-82
2021/05/04 03:35:15;;;;;;;8.40;4.43;;;307.40;2278.40;;;;;;5051971;28;20428;-82
2021/05/04 03:37:42;;;;;;;7.95;4.43;;;307.40;2278.40;;;;;;5052269;28;20031;-82
2021/05/04 03:40:08;;;;;;;8.73;4.88;;;282.50;2252.80;;;;;;5052331;28;20029;-80
2021/05/04 03:42:34;;;;;;;7.93;4.22;;;307.20;2278.40;;;;;;5052105;28;20025;-81
2021/05/04 03:45:01;;;;;;;7.82;4.35;;;307.20;2304.00;;;;;;5052447;28;20021;-82
2021/05/04 03:47:27;;;;;;;12.30;6.78;;;307.50;2278.40;;;;;;5052400;28;20025;-79
2021/05/04 03:49:53;;;;;;;12.65;7.55;;;307.40;2304.00;;;;;;5051859;28;20029;-80
2021/05/04 03:52:19;;;;;;;10.05;5.90;;;307.40;2278.40;;;;;;5052053;28;20045;-81
2021/05/04 03:54:49;;;;;;;8.90;5.95;;;307.50;2278.40;;;;;;5052443;28;20161;-81
2021/05/04 03:57:18;;;;;;;13.65;7.00;;;307.50;2278.40;;;;;;5053547;28;20407;-81
2021/05/04 03:59:44;;;;;;;9.02;5.57;;;307.40;2278.40;;;;;;5051997;28;20017;-80
2021/05/04 04:02:10;;;;;;;6.68;5.00;;;307.50;2304.00;;;;;;5051685;28;20463;-80
2021/05/04 04:04:36;;;;;;;10.35;5.70;;;307.40;2304.00;;;;;;5051990;28;20112;-81
2021/05/04 04:07:06;;;;;;;7.93;5.32;;;307.40;2304.00;;;;;;5051813;28;20075;-83
2021/05/04 04:09:32;;;;;;;10.02;5.70;;;307.40;2304.00;;;;;;5051457;28;20029;-81
2021/05/04 04:11:58;;;;;;;11.55;5.20;;;307.20;2304.00;;;;;;5051859;28;20021;-82
2021/05/04 04:14:24;;;;;;;10.60;6.80;;;282.50;2278.40;;;;;;5051898;28;20021;-80
2021/05/04 04:16:50;;;;;;;11.98;6.43;;;282.20;2278.40;;;;;;5052006;28;20021;-80
2021/05/04 04:19:16;;;;;;;13.35;6.07;;;281.70;2278.40;;;;;;5052218;28;20025;-82
2021/05/04 04:21:42;;;;;;;9.50;5.63;;;281.80;2278.40;;;;;;5052841;28;20436;-80
2021/05/04 04:24:09;;;;;;;8.55;5.43;;;281.90;2278.40;;;;;;5051979;28;20123;-80
2021/05/04 04:26:35;;;;;;;12.38;5.32;;;281.90;2278.40;;;;;;5055849;28;20372;-80
2021/05/04 04:29:01;;;;;;;12.20;7.60;;;282.00;2278.40;;;;;;5056165;28;20025;-82
2021/05/04 04:31:27;;;;;;;13.65;6.78;;;282.00;2278.40;;;;;;5055291;28;20463;-81
2021/05/04 04:33:53;;;;;;;15.13;8.13;;;281.80;2278.40;;;;;;5055638;28;20066;-82
2021/05/04 04:36:19;;;;;;;15.02;8.65;;;281.70;2278.40;;;;;;5055545;28;20032;-81
2021/05/04 04:38:51;;;;;;;14.63;7.63;;;281.70;2278.40;;;;;;5055298;28;20067;-81
2021/05/04 04:41:28;;;;;;;11.60;6.37;;;281.90;2278.40;;;;;;5034898;28;20069;-81
2021/05/04 04:43:55;;;;;;;10.63;6.47;;;282.00;2278.40;;;;;;5017016;28;20458;-83
2021/05/04 04:46:47;;;;;;;11.68;6.10;;;282.00;2278.40;;;;;;5017721;28;20513;-79
2021/05/04 04:49:39;;;;;;;11.95;6.97;;;282.20;2278.40;;;;;;4994496;28;20042;-80
2021/05/04 04:52:08;;;;;;;12.02;6.18;;;282.20;2278.40;;;;;;4978085;28;20513;-82
2021/05/04 04:54:35;;;;;;;9.52;6.20;;;282.20;2278.40;;;;;;4978459;28;20050;-81
2021/05/04 04:57:01;;;;;;;14.88;7.07;;;282.30;2278.40;;;;;;4979273;28;20030;-81
2021/05/04 04:59:29;;;;;;;8.90;5.90;;;282.30;2278.40;;;;;;4978189;28;20033;-79
2021/05/04 05:01:55;;;;;;;12.98;6.10;;;282.40;2278.40;;;;;;4978758;28;20054;-82
2021/05/04 05:04:21;;;;;;;8.05;5.40;;;282.30;2278.40;;;;;;4978283;28;20030;-81
2021/05/04 05:06:47;;;;;;;12.32;6.10;;;282.40;2278.40;;;;;;4978407;28;20038;-79
2021/05/04 05:09:13;;;;;;;7.75;4.88;;;282.40;2278.40;;;;;;4978218;28;20044;-80
2021/05/04 05:11:39;;;;;;;7.65;4.95;;;282.50;2278.40;;;;;;4983020;28;20073;-79
2021/05/04 05:14:14;;;;;;;8.82;5.78;;;282.50;2278.40;;;;;;5023270;28;20025;-84
2021/05/04 05:16:43;;;;;;;8.68;5.75;;;282.40;2278.40;;;;;;5055193;28;20035;-80
2021/05/04 05:19:09;;;;;;;8.07;5.38;;;307.30;2304.00;;;;;;5054509;28;20025;-81
2021/05/04 05:21:37;;;;;;;10.45;5.97;;;307.50;2304.00;;;;;;5054797;28;20479;-82
2021/05/04 05:24:03;;;;;;;7.82;5.72;;;307.70;2278.40;;;;;;5055695;28;20024;-82
2021/05/04 05:26:30;;;;;;;12.48;7.03;;;307.30;2278.40;;;;;;5054398;28;20444;-79
2021/05/04 05:28:57;;;;;;;9.30;5.80;;;307.60;2304.00;;;;;;5054532;28;20127;-81
2021/05/04 05:31:25;;;;;;;12.55;6.25;;;307.50;2304.00;;;;;;5054921;28;20032;-80
2021/05/04 05:33:53;;;;;;;12.50;6.65;;;307.50;2304.00;;;;;;5054791;28;20468;-82
2021/05/04 05:36:20;;;;;;;10.52;6.35;;;307.50;2304.00;;;;;;5053599;28;20035;-80
2021/05/04 05:38:46;;;;;;;10.98;6.20;;;307.70;2304.00;;;;;;5054489;28;20025;-82
2021/05/04 05:41:12;;;;;;;10.75;6.30;;;307.80;2304.00;;;;;;5054247;28;20447;-81
2021/05/04 05:43:38;;;;;;;11.32;6.00;;;307.80;2304.00;;;;;;5054295;28;20052;-83
2021/05/04 05:46:04;;;;;;;9.23;5.72;;;307.70;2278.40;;;;;;5054286;28;20471;-82
2021/05/04 05:48:30;;;;;;;9.15;5.78;;;307.80;2252.80;;;;;;5050482;28;20075;-82
2021/05/04 05:50:56;;;;;;;12.98;6.07;;;307.80;2278.40;;;;;;5037469;28;20440;-80
2021/05/04 05:53:23;;;;;;;7.88;5.65;;;308.10;2227.20;;;;;;5036399;28;20056;-79
2021/05/04 05:55:49;;;;;;;9.75;5.38;;;308.00;2227.20;;;;;;5054815;28;20021;-82
2021/05/04 05:58:16;;;;;;;12.00;6.10;;;332.80;2227.20;;;;;;5036664;28;20037;-83
2021/05/04 06:00:45;;;;;;;10.00;4.93;;;332.90;2227.20;;;;;;5037745;28;20053;-83
2021/05/04 06:03:12;;;;;;;10.63;5.18;;;332.80;2201.60;;;;;;5036695;28;20048;-83
2021/05/04 06:05:38;;;;;;;9.98;5.68;;;333.10;2201.60;;;;;;5037478;28;20025;-85
2021/05/04 06:08:05;;;;;;;10.90;5.28;;;333.20;2201.60;;;;;;5039209;28;20051;-84
2021/05/04 06:10:35;;;;;;;9.65;5.60;;;333.30;2176.00;;;;;;5020644;28;20060;-85
2021/05/04 06:13:06;;;;;;;11.45;5.55;;;333.40;2176.00;;;;;;5037118;28;20017;-85
2021/05/04 06:15:33;;;;;;;7.28;4.85;;;333.50;2124.80;;;;;;5036934;28;20472;-86
2021/05/04 06:17:59;;;;;;;8.20;4.78;;;333.70;2124.80;;;;;;5037051;28;20025;-86
2021/05/04 06:20:25;;;;;;;9.38;4.93;;;333.70;2073.60;;;;;;5053377;28;20479;-85
2021/05/04 06:22:54;;;;;;;8.00;4.72;;;358.40;2073.60;;;;;;5036345;28;20032;-83
2021/05/04 06:25:23;;;;;;;7.97;4.60;;;358.50;2022.40;;;;;;5038257;28;20083;-85
2021/05/04 06:27:49;;;;;;;10.38;4.70;;;358.60;1945.60;;;;;;5038404;28;20056;-84
2021/05/04 06:30:16;;;;;;;10.52;4.72;;;359.10;1945.60;;;;;;5036689;28;20136;-84
2021/05/04 06:32:44;;;;;;;8.45;4.60;;;358.80;1920.00;;;;;;5036965;28;20112;-85
2021/05/04 06:35:14;;;;;;;9.43;4.40;;;358.80;1740.80;;;;;;5037016;28;20036;-86
2021/05/04 06:37:40;;;;;;;7.57;3.67;;;358.90;1766.40;;;;;;5036869;28;20044;-84
2021/05/04 06:40:07;;;;;;;7.78;4.03;;;358.90;1689.60;;;;;;5036694;28;20112;-83
2021/05/04 06:42:33;;;;;;;9.30;3.80;;;359.10;1664.00;;;;;;5036732;28;20452;-86
2021/05/04 06:44:59;;;;;;;6.20;3.42;;;359.20;1689.60;;;;;;5036576;28;20087;-83
2021/05/04 06:47:25;;;;;;;8.05;3.78;;;359.30;1689.60;;;;;;5036760;28;20365;-84
2021/05/04 06:49:50;;;;;;;9.80;4.93;;;384.10;1740.80;;;;;;5035195;28;20028;-86
2021/05/04 06:52:16;;;;;;;6.65;3.85;;;384.30;1766.40;;;;;;5036254;28;20103;-86
2021/05/04 06:54:44;;;;;;;8.07;4.10;;;384.60;1689.60;;;;;;5040320;28;20078;-83
2021/05/04 06:57:10;;;;;;;9.93;4.10;;;384.70;1689.60;;;;;;5036582;28;20514;-85
2021/05/04 06:59:36;;;;;;;10.68;4.28;;;384.60;1638.40;;;;;;5034076;28;20025;-83
2021/05/04 07:02:02;;;;;;;9.50;4.22;;;384.70;1638.40;;;;;;5031039;28;20029;-85
2021/05/04 07:04:28;;;;;;;8.63;4.28;;;384.90;1612.80;;;;;;5031589;28;20078;-83
2021/05/04 07:06:54;;;;;;;8.98;4.18;;;409.70;1638.40;;;;;;5031566;28;20017;-83
2021/05/04 07:09:19;;;;;;;7.07;3.70;;;409.70;1612.80;;;;;;5030435;28;20048;-83
2021/05/04 07:11:45;;;;;;;6.10;4.13;;;409.70;1587.20;;;;;;5032026;28;20025;-80
2021/05/04 07:14:11;;;;;;;7.88;4.30;;;409.60;1612.80;;;;;;5032005;28;20032;-81
2021/05/04 07:16:39;;;;;;;11.05;4.95;;;409.70;1612.80;;;;;;5030732;28;20045;-82
2021/05/04 07:19:06;;;;;;;10.25;4.45;;;410.00;1587.20;;;;;;5049646;28;20029;-82
2021/05/04 07:21:34;;;;;;;8.15;4.22;;;410.20;1612.80;;;;;;5031002;28;20448;-82
2021/05/04 07:24:00;;;;;;;8.85;4.47;;;410.30;1536.00;;;;;;5049394;28;20025;-83
2021/05/04 07:26:27;;;;;;;11.80;5.28;;;410.30;1536.00;;;;;;5032529;28;20017;-83
2021/05/04 07:28:53;;;;;;;11.02;5.85;;;435.20;1561.60;;;;;;5031876;28;20383;-85
2021/05/04 07:31:20;;;;;;;9.63;5.57;;;435.50;1536.00;;;;;;5033993;28;20024;-81
2021/05/04 07:33:46;;;;;;;10.65;6.63;;;435.60;1484.80;;;;;;5033995;28;20047;-78
2021/05/04 07:36:12;;;;;;;11.38;5.78;;;435.80;1459.20;;;;;;5052880;28;20405;-80
2021/05/04 07:38:38;;;;;;;9.60;5.15;;;435.60;1433.60;;;;;;5052163;28;20095;-79
2021/05/04 07:41:05;;;;;;;8.50;5.40;;;435.40;1459.20;;;;;;5052214;28;20032;-80
2021/05/04 07:43:31;;;;;;;8.55;5.45;;;436.00;1484.80;;;;;;5052341;28;20539;-80
2021/05/04 07:45:57;;;;;;;14.70;5.60;;;435.50;1484.80;;;;;;5052357;28;20044;-80
2021/05/04 07:48:23;;;;;;;11.25;5.70;;;436.00;1510.40;;;;;;5051971;28;20045;-83
2021/05/04 07:50:49;;;;;;;14.38;5.00;;;460.90;1510.40;;;;;;5052542;28;20052;-83
2021/05/04 07:53:15;;;;;;;7.22;4.25;;;461.20;1484.80;;;;;;5052211;28;20052;-83
2021/05/04 07:55:41;;;;;;;10.18;5.00;;;461.20;1484.80;;;;;;5053737;28;20475;-83
2021/05/04 07:58:07;;;;;;;9.68;5.07;;;461.40;1484.80;;;;;;5036044;28;20436;-82
2021/05/04 08:00:33;;;;;;;11.55;5.95;;;461.40;1433.60;;;;;;5050252;28;20017;-81
2021/05/04 08:02:58;;;;;;;7.13;4.68;;;461.50;1459.20;;;;;;5033890;28;20024;-79
2021/05/04 08:05:24;;;;;;;8.52;4.20;;;461.70;1433.60;;;;;;5050370;28;20485;-80
2021/05/04 08:07:51;;;;;;;8.20;4.22;;;461.60;1459.20;;;;;;5035938;28;20445;-80
2021/05/04 08:10:18;;;;;;;10.88;5.38;;;486.40;1459.20;;;;;;5034827;28;20095;-80
2021/05/04 08:12:43;;;;;;;16.63;7.13;;;486.40;1433.60;;;;;;5031787;28;20027;-80
2021/05/04 08:15:17;;;;;;;14.30;5.90;;;486.60;1433.60;;;;;;5019974;28;20033;-80
2021/05/04 08:17:50;;;;;;;9.52;5.22;;;486.40;1433.60;;;;;;5035761;28;20107;-82
2021/05/04 08:20:16;;;;;;;10.93;5.03;;;486.50;1408.00;;;;;;5038580;28;20024;-80
2021/05/04 08:22:42;;;;;;;9.50;4.50;;;487.00;1408.00;;;;;;5055805;28;20036;-82
2021/05/04 08:25:10;;;;;;;16.90;7.45;;;487.10;1382.40;;;;;;5039285;28;20487;-86
2021/05/04 08:27:37;;;;;;;10.98;5.72;;;487.10;1356.80;;;;;;5032860;28;20020;-83
2021/05/04 08:30:04;;;;;;;13.60;9.13;;;487.30;1356.80;;;;;;5033767;28;20970;-83
2021/05/04 08:32:29;;;;;;;8.18;3.70;;;512.10;1356.80;;;;;;5035952;28;20035;-81
2021/05/04 08:34:55;;;;;;;10.63;4.03;;;486.70;1356.80;;;;;;5052823;28;20108;-83
2021/05/04 08:37:21;;;;;;;6.40;4.13;;;486.50;1382.40;;;;;;5035181;28;20453;-84
2021/05/04 08:39:47;;;;;;;8.57;4.13;;;486.90;1382.40;;;;;;5035403;28;20021;-83
2021/05/04 08:42:15;;;;;;;13.73;7.80;;;487.10;1382.40;;;;;;5034282;28;20017;-79
2021/05/04 08:44:47;;;;;;;8.88;4.45;;;512.10;1356.80;;;;;;5034899;28;20021;-86
2021/05/04 08:47:13;;;;;;;10.90;4.32;;;487.30;1356.80;;;;;;5034496;28;20124;-83
2021/05/04 08:49:40;;;;;;;10.20;4.32;;;512.30;1356.80;;;;;;5033717;28;20035;-81
2021/05/04 08:52:06;;;;;;;9.82;7.53;;;512.50;1331.20;;;;;;5037153;28;20977;-84
2021/05/04 08:54:32;;;;;;;9.98;5.30;;;512.40;1305.60;;;;;;5055530;28;20088;-87
2021/05/04 08:56:57;;;;;;;12.40;5.57;;;512.50;1331.20;;;;;;5035016;28;20128;-79
2021/05/04 08:59:23;;;;;;;12.88;4.07;;;512.80;1305.60;;;;;;5032070;28;20020;-78
2021/05/04 09:01:49;;;;;;;10.07;5.10;;;512.90;1280.00;;;;;;5032485;28;20032;-78
2021/05/04 09:04:54;;;;;;;5.70;2.83;;;537.60;1305.60;;;;;;5035684;28;20028;-78
2021/05/04 09:07:25;;;;;;;6.68;3.28;;;512.90;1305.60;;;;;;5024028;28;20029;-79
2021/05/04 09:12:56;;;;;;;7.30;3.55;;;537.70;1305.60;;;;;;5052134;28;20021;-80
2021/05/04 09:21:32;;;;;;;8.82;5.03;;;563.20;1305.60;;;;;;5018798;28;20175;-83
2021/05/04 09:23:59;;;;;;;8.23;3.65;;;563.30;1331.20;;;;;;5033651;28;20116;-78
2021/05/04 09:26:33;;;;;;;5.88;3.28;;;563.40;1280.00;;;;;;5036139;28;20097;-81
2021/05/04 09:28:59;;;;;;;5.68;3.63;;;563.60;1280.00;;;;;;5018273;28;20456;-83
2021/05/04 09:31:28;;;;;;;6.60;3.40;;;563.80;1280.00;;;;;;5035485;28;20013;-79
2021/05/04 09:33:55;;;;;;;5.68;2.90;;;563.90;1254.40;;;;;;5017035;28;20021;-82
2021/05/04 09:36:41;;;;;;;5.25;2.78;;;563.90;1228.80;;;;;;5017625;28;20024;-83
2021/05/04 09:39:08;;;;;;;5.80;2.90;;;564.10;1254.40;;;;;;5017425;28;20022;-82
2021/05/04 09:41:35;;;;;;;10.43;3.15;;;588.80;1228.80;;;;;;5018020;28;20022;-81
2021/05/04 09:44:01;;;;;;;9.55;3.60;;;588.80;1228.80;;;;;;5017906;28;20025;-83
2021/05/04 09:46:48;;;;;;;8.75;2.50;;;589.00;1228.80;;;;;;5017605;28;20441;-80
2021/05/04 09:49:25;;;;;;;8.27;2.50;;;589.20;1203.20;;;;;;5018071;28;20038;-82
2021/05/04 09:51:52;;;;;;;6.60;3.05;;;589.30;1228.80;;;;;;5017648;28;20112;-82
2021/05/04 09:54:28;;;;;;;6.05;3.92;;;589.40;1203.20;;;;;;5017611;28;20022;-83
2021/05/04 09:56:55;;;;;;;9.23;4.25;;;589.40;1177.60;;;;;;5017709;28;20017;-79
2021/05/04 09:59:23;;;;;;;5.68;2.90;;;589.50;1228.80;;;;;;5035131;28;20028;-80
2021/05/04 10:01:52;;;;;;;5.50;2.92;;;589.50;1177.60;;;;;;5017313;28;20059;-80
2021/05/04 10:04:19;;;;;;;11.23;4.20;;;589.40;1177.60;;;;;;5017418;28;20446;-80
2021/05/04 10:06:45;;;;;;;8.10;3.53;;;589.70;1203.20;;;;;;5035173;28;20022;-81
2021/05/04 10:09:15;;;;;;;5.00;2.83;;;589.70;1203.20;;;;;;5017569;28;20449;-82
2021/05/04 10:11:41;;;;;;;11.70;4.00;;;614.40;1177.60;;;;;;5034923;28;20021;-81
2021/05/04 10:14:07;;;;;;;6.88;4.25;;;614.80;1177.60;;;;;;5055148;28;20021;-80
2021/05/04 10:16:33;;;;;;;7.03;3.72;;;614.90;1152.00;;;;;;5035918;28;20044;-78
2021/05/04 10:19:04;;;;;;;5.60;3.45;;;615.20;1177.60;;;;;;5053496;28;20461;-80
2021/05/04 10:21:30;;;;;;;6.07;3.35;;;615.30;1126.40;;;;;;5036759;28;20028;-81
2021/05/04 10:23:57;;;;;;;5.72;3.20;;;640.00;1126.40;;;;;;5054707;28;20039;-81
2021/05/04 10:26:29;;;;;;;6.15;3.20;;;614.50;1126.40;;;;;;5036857;28;20025;-82
2021/05/04 10:28:56;;;;;;;;;;;614.50;1152.00;;;;;;5054894;28;20063;-81
2021/05/04 10:31:36;;;;;;;5.78;3.13;;;589.50;1152.00;;;;;;5036776;28;19901;-82
2021/05/04 10:34:24;;;;;;;5.95;3.30;;;614.70;1152.00;;;;;;5037126;28;20040;-80
2021/05/04 10:36:55;;;;;;;6.20;3.08;;;615.20;1152.00;;;;;;5036853;28;20059;-80
2021/05/04 10:39:43;;;;;;;7.13;2.75;;;615.00;1126.40;;;;;;5036621;28;20132;-81
2021/05/04 10:42:32;;;;;;;6.90;3.03;;;615.00;1126.40;;;;;;5036453;28;20021;-80
2021/05/04 10:44:58;;;;;;;6.97;3.60;;;640.00;1152.00;;;;;;5054583;28;20013;-81
2021/05/04 10:47:39;;;;;;;7.07;4.95;;;640.20;1126.40;;;;;;5036256;28;20020;-81
2021/05/04 10:50:09;;;;;;;9.63;5.25;;;640.50;1100.80;;;;;;5053896;28;20025;-82
2021/05/04 10:52:56;;;;;;;6.97;3.78;;;640.70;1075.20;;;;;;5036118;28;20037;-80
2021/05/04 10:55:24;;;;;;;6.95;3.00;;;640.90;1075.20;;;;;;5036258;28;20008;-81
2021/05/04 10:58:02;;;;;;;6.10;3.13;;;640.60;1075.20;;;;;;5036644;28;20028;-83
2021/05/04 11:01:01;;;;;;;5.72;2.60;;;665.70;1100.80;;;;;;5036727;28;20025;-81
2021/05/04 11:03:30;;;;;;;6.07;2.92;;;665.90;1100.80;;;;;;5036072;28;20024;-79
2021/05/04 11:06:00;;;;;;;10.65;4.38;;;666.20;1100.80;;;;;;5054131;28;20128;-78
2021/05/04 11:08:44;;;;;;;9.98;4.93;;;666.20;1075.20;;;;;;5036098;28;20021;-78
2021/05/04 11:11:35;;;;;;;9.75;3.80;;;666.50;1075.20;;;;;;5035537;28;20033;-79
2021/05/04 11:14:05;;;;;;;8.38;3.83;;;691.30;1049.60;;;;;;5035896;28;20021;-78
2021/05/04 11:16:45;;;;;;;6.93;3.65;;;666.40;1049.60;;;;;;5036360;28;20086;-77
2021/05/04 11:19:32;;;;;;;6.95;3.78;;;691.30;1049.60;;;;;;5036163;28;20075;-77
2021/05/04 11:21:58;;;;;;;6.85;3.75;;;691.80;1049.60;;;;;;5049112;28;20113;-80
2021/05/04 11:24:48;;;;;;;8.98;3.63;;;691.80;1049.60;;;;;;5033681;28;20115;-78
2021/05/04 11:27:18;;;;;;;7.75;4.90;;;691.90;998.40;;;;;;5033677;28;20062;-79
2021/05/04 11:29:46;;;;;;;9.10;4.80;;;691.90;1024.00;;;;;;5034064;28;20516;-79
2021/05/04 11:32:37;;;;;;;7.30;3.72;;;692.10;1049.60;;;;;;5034089;28;20109;-78
2021/05/04 11:35:05;;;;;;;6.20;3.53;;;717.10;1075.20;;;;;;5052007;28;20024;-78
2021/05/04 11:37:40;;;;;;;6.07;3.33;;;717.10;1024.00;;;;;;5051532;28;20138;-78
2021/05/04 11:40:07;;;;;;;6.07;3.00;;;716.90;1024.00;;;;;;5034424;28;20341;-78
2021/05/04 11:42:48;;;;;;;8.77;3.63;;;716.90;1049.60;;;;;;5034368;28;20021;-78
2021/05/04 11:45:29;;;;;;;7.47;3.10;;;717.10;1049.60;;;;;;5031410;28;20080;-78
2021/05/04 11:48:01;;;;;;;6.93;3.00;;;717.10;1024.00;;;;;;5029288;28;20460;-77
2021/05/04 11:50:32;;;;;;;6.65;3.22;;;717.10;1049.60;;;;;;5049638;28;20033;-78
2021/05/04 11:53:01;;;;;;;7.85;4.45;;;717.40;1049.60;;;;;;5048808;28;20040;-78
2021/05/04 11:55:43;;;;;;;6.72;4.15;;;717.40;1024.00;;;;;;5034529;28;20059;-79
2021/05/04 11:58:13;;;;;;;6.68;3.63;;;717.50;1024.00;;;;;;5033852;28;20108;-79
2021/05/04 12:00:39;;;;;;;11.45;3.63;;;717.70;998.40;;;;;;5051290;28;20060;-78
2021/05/04 12:03:16;;;;;;;5.38;3.30;;;717.70;998.40;;;;;;5030487;28;20025;-79
2021/05/04 12:05:44;;;;;;;7.53;4.07;;;717.70;998.40;;;;;;5046559;28;20021;-78
2021/05/04 12:08:11;;;;;;;7.38;4.32;;;742.40;1024.00;;;;;;5032858;28;20083;-78
2021/05/04 12:10:47;;;;;;;10.00;4.28;;;717.70;998.40;;;;;;5034031;28;20098;-78
2021/05/04 12:13:20;;;;;;;8.27;4.25;;;742.50;1049.60;;;;;;5032551;28;20029;-79
2021/05/04 12:15:52;;;;;;;9.70;4.60;;;742.50;1024.00;;;;;;5035121;28;20021;-79
2021/05/04 12:18:20;;;;;;;11.30;4.35;;;742.60;1024.00;;;;;;5046380;28;20364;-79
2021/05/04 12:20:50;;;;;;;7.55;3.83;;;742.50;1024.00;;;;;;5029859;28;20033;-77
2021/05/04 12:23:27;;;;;;;7.18;3.40;;;742.50;998.40;;;;;;5048026;28;20029;-78
2021/05/04 12:26:00;;;;;;;6.35;3.67;;;742.50;1024.00;;;;;;5046039;28;20028;-80
2021/05/04 12:28:32;;;;;;;11.85;5.32;;;742.80;998.40;;;;;;5045095;28;20016;-78
2021/05/04 12:31:10;;;;;;;11.43;4.32;;;742.90;1024.00;;;;;;5031149;28;20090;-80
2021/05/04 12:33:41;;;;;;;7.85;4.70;;;743.00;998.40;;;;;;5029324;28;20024;-80